Time;durP1;ratioP1;P1;durP2;ratioP2;P2;SDS_P1;SDS_P2;PMS_P1;PMS_P2;Temp;Humidity;BMP_temperature;BMP_pressure;BME280_temperature;BME280_humidity;BME280_pressure;Samples;Min_cycle;Max_cycle;Signal;HPM_P1;HPM_P2
2022/05/14 00:01:44;;;;;;;14.25;6.28;;;13.60;99.90;;;;;;5001749;28;20225;-72
2022/05/14 00:04:33;;;;;;;9.23;6.40;;;13.70;99.90;;;;;;5001249;28;20228;-71
2022/05/14 00:07:22;;;;;;;9.85;6.18;;;13.60;99.90;;;;;;5009194;28;20232;-71
2022/05/14 00:10:11;;;;;;;8.88;6.03;;;13.60;99.90;;;;;;5017092;28;20239;-72
2022/05/14 00:13:04;;;;;;;10.32;6.13;;;13.60;99.90;;;;;;4992533;28;20218;-72
2022/05/14 00:15:54;;;;;;;10.05;6.20;;;13.50;99.90;;;;;;5018106;28;20228;-71
2022/05/14 00:18:45;;;;;;;9.57;6.75;;;13.40;99.90;;;;;;5009950;28;20225;-72
2022/05/14 00:21:35;;;;;;;9.68;6.45;;;13.40;99.90;;;;;;5013915;28;21507;-73
2022/05/14 00:24:24;;;;;;;11.25;5.90;;;13.40;99.90;;;;;;5008617;28;20239;-72
2022/05/14 00:27:12;;;;;;;7.85;6.03;;;13.40;99.90;;;;;;5010468;28;20687;-72
2022/05/14 00:30:01;;;;;;;8.02;5.90;;;13.30;99.90;;;;;;5006164;28;20291;-72
2022/05/14 00:32:50;;;;;;;9.30;5.88;;;13.30;99.90;;;;;;4993506;28;20222;-72
2022/05/14 00:35:40;;;;;;;8.68;6.50;;;13.30;99.90;;;;;;5012244;28;20221;-70
2022/05/14 00:38:30;;;;;;;8.27;6.20;;;13.30;99.90;;;;;;5010467;28;20321;-71
2022/05/14 00:41:19;;;;;;;10.52;6.47;;;13.30;99.90;;;;;;5006400;28;20245;-70
2022/05/14 00:44:07;;;;;;;9.98;6.82;;;13.30;99.90;;;;;;4989039;28;20363;-74
2022/05/14 00:47:01;;;;;;;9.88;6.72;;;13.30;99.90;;;;;;4978486;28;20822;-73
2022/05/14 00:49:51;;;;;;;9.65;6.90;;;13.20;99.90;;;;;;4966378;28;20234;-73
2022/05/14 00:52:41;;;;;;;11.80;7.45;;;13.20;99.90;;;;;;4961799;28;20220;-73
2022/05/14 00:55:30;;;;;;;9.00;7.18;;;13.20;99.90;;;;;;4968705;28;20227;-72
2022/05/14 00:58:26;;;;;;;8.40;7.40;;;13.20;99.90;;;;;;4958650;28;20220;-71
2022/05/14 01:01:15;;;;;;;10.18;7.43;;;13.00;99.90;;;;;;4961962;28;20268;-73
2022/05/14 01:04:06;;;;;;;9.43;7.55;;;12.90;99.90;;;;;;4968241;28;20234;-73
2022/05/14 01:06:58;;;;;;;10.55;7.45;;;13.00;99.90;;;;;;4972561;28;20215;-74
2022/05/14 01:09:51;;;;;;;9.10;7.47;;;12.90;99.90;;;;;;4984066;28;20224;-74
2022/05/14 01:12:44;;;;;;;8.35;7.50;;;13.00;99.90;;;;;;4977652;28;20269;-71
2022/05/14 01:15:46;;;;;;;9.40;7.50;;;13.00;99.90;;;;;;4988824;28;20574;-70
2022/05/14 01:18:37;;;;;;;9.43;7.90;;;13.00;99.90;;;;;;4979072;28;20275;-72
2022/05/14 01:21:37;;;;;;;9.52;7.28;;;13.00;99.90;;;;;;4992450;28;20697;-72
2022/05/14 01:27:42;;;;;;;8.98;6.90;;;13.20;99.90;;;;;;4958641;28;20225;-73
2022/05/14 01:30:31;;;;;;;7.65;6.85;;;13.10;99.90;;;;;;4966542;28;20223;-72
2022/05/14 01:33:20;;;;;;;8.27;7.13;;;13.00;99.90;;;;;;4957362;28;20224;-73
2022/05/14 01:36:10;;;;;;;8.73;7.57;;;12.80;99.90;;;;;;4963547;28;20259;-70
2022/05/14 01:38:59;;;;;;;10.48;7.65;;;12.90;99.90;;;;;;4958343;28;20398;-71
2022/05/14 01:41:48;;;;;;;8.90;7.45;;;13.00;99.90;;;;;;4956693;28;20458;-71
2022/05/14 01:44:40;;;;;;;12.25;7.95;;;12.90;99.90;;;;;;4963683;28;20235;-70
2022/05/14 01:47:29;;;;;;;10.45;7.68;;;12.90;99.90;;;;;;4980913;28;20670;-71
2022/05/14 01:50:18;;;;;;;8.82;7.72;;;12.90;99.90;;;;;;5002033;28;20685;-72
2022/05/14 01:53:07;;;;;;;10.65;7.53;;;12.80;99.90;;;;;;4985916;28;20316;-71
2022/05/14 01:55:59;;;;;;;11.60;7.65;;;12.80;99.90;;;;;;4995450;28;20218;-73
2022/05/14 01:58:49;;;;;;;8.27;6.70;;;12.80;99.90;;;;;;4983180;28;20245;-72
2022/05/14 02:01:43;;;;;;;9.30;6.82;;;12.80;99.90;;;;;;4982638;28;20236;-72
2022/05/14 02:04:32;;;;;;;10.48;6.68;;;12.80;99.90;;;;;;5000637;28;20562;-72
2022/05/14 02:07:21;;;;;;;9.32;6.85;;;12.80;99.90;;;;;;4983460;28;20262;-71
2022/05/14 02:10:11;;;;;;;7.93;6.47;;;12.70;99.90;;;;;;4997893;28;20708;-73
2022/05/14 02:13:00;;;;;;;9.77;6.80;;;12.70;99.90;;;;;;4994639;28;20226;-72
2022/05/14 02:15:49;;;;;;;8.80;6.10;;;12.60;99.90;;;;;;5010713;28;20621;-72
2022/05/14 02:18:39;;;;;;;9.88;6.28;;;12.60;99.90;;;;;;4997629;28;20225;-72
2022/05/14 02:21:28;;;;;;;7.78;6.10;;;12.60;99.90;;;;;;5004394;28;20231;-71
2022/05/14 02:24:17;;;;;;;9.18;6.50;;;12.70;99.90;;;;;;5010599;28;20231;-72
2022/05/14 02:27:07;;;;;;;7.40;6.28;;;12.40;99.90;;;;;;5024443;28;20489;-73
2022/05/14 02:29:55;;;;;;;7.85;5.60;;;12.50;99.90;;;;;;5034951;28;20220;-72
2022/05/14 02:32:45;;;;;;;8.35;5.78;;;12.50;99.90;;;;;;4996528;28;20217;-72
2022/05/14 02:35:35;;;;;;;7.47;5.95;;;12.60;99.90;;;;;;5031727;28;20217;-71
2022/05/14 02:38:25;;;;;;;8.82;5.75;;;12.60;99.90;;;;;;5001058;28;20225;-72
2022/05/14 02:41:14;;;;;;;10.98;5.93;;;12.70;99.90;;;;;;5016505;28;20232;-73
2022/05/14 02:44:03;;;;;;;7.15;5.60;;;12.60;99.90;;;;;;5005633;28;20986;-72
2022/05/14 02:46:52;;;;;;;7.82;5.70;;;12.70;99.90;;;;;;5024351;28;20221;-73
2022/05/14 02:49:41;;;;;;;8.98;5.95;;;12.60;99.90;;;;;;5020544;28;20217;-72
2022/05/14 02:52:32;;;;;;;11.30;6.45;;;12.70;99.90;;;;;;4995529;28;20226;-71
2022/05/14 02:55:22;;;;;;;9.48;5.50;;;12.60;99.90;;;;;;5006135;28;20221;-72
2022/05/14 02:58:11;;;;;;;10.18;5.93;;;12.70;99.90;;;;;;5006024;28;20229;-72
2022/05/14 03:00:59;;;;;;;7.85;5.30;;;12.60;99.90;;;;;;5015792;28;20443;-73
2022/05/14 03:03:48;;;;;;;8.57;5.15;;;12.80;99.90;;;;;;5022805;28;20424;-73
2022/05/14 03:06:38;;;;;;;9.45;5.30;;;12.90;99.90;;;;;;5002221;28;20218;-72
2022/05/14 03:09:28;;;;;;;8.90;5.40;;;13.00;99.90;;;;;;5027262;28;20253;-73
2022/05/14 03:12:21;;;;;;;10.35;5.88;;;12.90;99.90;;;;;;5009909;28;20224;-71
2022/05/14 03:15:12;;;;;;;9.50;5.40;;;12.80;99.90;;;;;;5011139;28;20700;-72
2022/05/14 03:18:02;;;;;;;12.88;5.72;;;13.00;99.90;;;;;;5024221;28;20415;-71
2022/05/14 03:20:51;;;;;;;8.68;5.45;;;13.00;99.90;;;;;;5021041;28;20316;-72
2022/05/14 03:23:40;;;;;;;10.02;5.70;;;13.00;99.90;;;;;;4999213;28;20604;-72
2022/05/14 03:26:30;;;;;;;9.15;5.55;;;12.90;99.90;;;;;;4995838;28;20218;-71
2022/05/14 03:29:20;;;;;;;8.55;5.75;;;12.90;99.90;;;;;;4997272;28;20222;-71
2022/05/14 03:32:09;;;;;;;8.45;5.38;;;13.00;99.90;;;;;;5007039;28;20229;-71
2022/05/14 03:35:00;;;;;;;9.18;5.25;;;13.00;99.90;;;;;;4997187;28;20874;-72
2022/05/14 03:37:52;;;;;;;8.05;5.38;;;13.00;99.90;;;;;;4990502;28;20326;-72
2022/05/14 03:40:41;;;;;;;10.07;5.80;;;12.90;99.90;;;;;;5009893;28;20226;-72
2022/05/14 03:43:32;;;;;;;7.72;5.20;;;12.90;99.90;;;;;;4994370;28;20221;-72
2022/05/14 03:46:21;;;;;;;10.73;5.32;;;13.00;99.90;;;;;;5002116;28;20260;-72
2022/05/14 03:49:10;;;;;;;7.35;5.22;;;13.20;99.90;;;;;;4983290;28;20604;-72
2022/05/14 03:51:59;;;;;;;9.60;4.75;;;13.10;99.90;;;;;;5004141;28;20361;-71
2022/05/14 03:54:51;;;;;;;8.40;4.72;;;13.00;99.90;;;;;;5021126;28;20327;-72
2022/05/14 03:57:40;;;;;;;9.35;5.35;;;13.00;99.90;;;;;;4993981;28;20236;-72
2022/05/14 04:00:31;;;;;;;11.32;4.68;;;13.10;99.90;;;;;;5007039;28;20225;-71
2022/05/14 04:03:20;;;;;;;7.75;4.75;;;13.20;99.90;;;;;;5003384;28;20213;-72
2022/05/14 04:06:09;;;;;;;8.10;4.88;;;13.00;99.90;;;;;;5005201;28;20237;-74
2022/05/14 04:08:59;;;;;;;8.60;4.82;;;13.10;99.90;;;;;;5002695;28;20288;-73
2022/05/14 04:11:48;;;;;;;9.45;4.90;;;13.20;99.90;;;;;;5006820;28;20703;-74
2022/05/14 04:14:37;;;;;;;8.63;4.90;;;13.30;99.90;;;;;;5021177;28;20263;-73
2022/05/14 04:17:28;;;;;;;6.55;4.88;;;13.30;99.90;;;;;;5019563;28;20976;-72
2022/05/14 04:20:18;;;;;;;7.55;4.65;;;13.20;99.90;;;;;;5018339;28;20222;-72
2022/05/14 04:23:09;;;;;;;8.00;4.97;;;13.20;99.90;;;;;;5006760;28;20367;-71
2022/05/14 04:25:59;;;;;;;10.80;5.20;;;13.30;99.90;;;;;;5018423;28;20687;-71
2022/05/14 04:28:50;;;;;;;9.13;4.47;;;13.40;99.90;;;;;;5006673;28;20355;-72
2022/05/14 04:31:40;;;;;;;9.98;5.22;;;13.40;99.90;;;;;;5004829;28;20298;-71
2022/05/14 04:34:34;;;;;;;9.00;4.85;;;13.40;99.90;;;;;;5022668;28;20217;-71
2022/05/14 04:37:23;;;;;;;9.35;4.40;;;13.50;99.90;;;;;;5007997;28;20703;-72
2022/05/14 04:40:14;;;;;;;9.60;4.85;;;13.50;99.90;;;;;;5007340;28;20250;-74
2022/05/14 04:43:07;;;;;;;10.02;4.80;;;13.50;99.90;;;;;;4999364;28;20255;-72
2022/05/14 04:45:56;;;;;;;8.90;4.55;;;13.60;99.90;;;;;;4999726;28;20214;-71
2022/05/14 04:48:45;;;;;;;10.02;4.75;;;13.70;99.90;;;;;;4990052;28;20616;-71
2022/05/14 04:51:35;;;;;;;14.30;5.25;;;13.70;99.90;;;;;;4988417;28;20233;-72
2022/05/14 04:54:25;;;;;;;11.32;5.18;;;13.80;99.90;;;;;;5002810;28;20307;-71
2022/05/14 04:57:14;;;;;;;8.32;4.82;;;13.90;99.90;;;;;;5002174;28;20229;-70
2022/05/14 05:00:04;;;;;;;7.03;5.03;;;13.90;99.90;;;;;;5009792;28;20240;-74
2022/05/14 05:06:04;;;;;;;10.90;5.00;;;13.80;99.90;;;;;;5021833;28;20308;-71
2022/05/14 05:08:54;;;;;;;9.30;4.57;;;13.90;99.90;;;;;;5011759;28;20313;-71
2022/05/14 05:11:43;;;;;;;9.93;5.13;;;13.90;99.90;;;;;;5007597;28;20220;-71
2022/05/14 05:14:32;;;;;;;8.55;4.80;;;14.10;99.90;;;;;;5008942;28;20222;-72
2022/05/14 05:17:21;;;;;;;7.55;4.85;;;13.90;99.90;;;;;;5022932;28;20229;-71
2022/05/14 05:20:11;;;;;;;11.70;4.93;;;13.90;99.90;;;;;;5024961;28;20230;-71
2022/05/14 05:22:59;;;;;;;12.65;5.30;;;13.90;99.90;;;;;;5020540;28;20229;-74
2022/05/14 05:25:50;;;;;;;9.77;4.50;;;13.90;99.90;;;;;;5023800;28;20273;-73
2022/05/14 05:28:38;;;;;;;8.90;4.93;;;14.00;99.90;;;;;;5020388;28;20225;-72
2022/05/14 05:31:27;;;;;;;12.80;4.55;;;13.90;99.90;;;;;;5006823;28;20994;-72
2022/05/14 05:34:16;;;;;;;10.13;4.70;;;14.00;99.90;;;;;;5019671;28;20249;-73
2022/05/14 05:37:05;;;;;;;6.72;4.57;;;14.10;99.90;;;;;;5021218;28;20321;-73
2022/05/14 05:39:53;;;;;;;7.82;4.78;;;14.10;99.90;;;;;;5007653;28;20271;-74
2022/05/14 05:42:47;;;;;;;9.02;4.50;;;14.10;99.90;;;;;;5025291;28;20221;-74
2022/05/14 05:45:37;;;;;;;8.75;3.92;;;14.10;99.90;;;;;;5022159;28;20218;-73
2022/05/14 05:48:26;;;;;;;10.05;4.45;;;14.20;99.90;;;;;;4996631;28;20231;-73
2022/05/14 05:51:15;;;;;;;8.13;4.63;;;14.40;99.90;;;;;;5000743;28;20549;-72
2022/05/14 05:57:10;;;;;;;8.48;4.28;;;14.50;99.90;;;;;;4994564;28;20280;-72
2022/05/14 06:00:00;;;;;;;9.43;4.40;;;14.70;99.90;;;;;;4990046;28;20238;-72
2022/05/14 06:03:02;;;;;;;8.82;4.60;;;14.90;99.90;;;;;;4999710;28;20298;-73
2022/05/14 06:05:58;;;;;;;7.93;4.20;;;14.90;99.90;;;;;;5002737;28;20413;-72
2022/05/14 06:08:47;;;;;;;7.25;4.30;;;15.20;99.90;;;;;;4998566;28;20358;-72
2022/05/14 06:11:36;;;;;;;9.63;4.63;;;15.30;99.90;;;;;;5002205;28;20218;-73
2022/05/14 06:14:26;;;;;;;12.23;4.65;;;15.50;99.90;;;;;;4988653;28;20286;-71
2022/05/14 06:17:16;;;;;;;8.18;4.20;;;15.60;99.90;;;;;;4997953;28;20526;-72
2022/05/14 06:20:06;;;;;;;5.55;4.07;;;15.80;99.90;;;;;;5013577;28;20597;-72
2022/05/14 06:22:55;;;;;;;7.70;4.20;;;15.80;99.90;;;;;;5003182;28;20226;-71
2022/05/14 06:25:44;;;;;;;6.47;4.10;;;15.80;99.90;;;;;;5006825;28;20221;-71
2022/05/14 06:28:33;;;;;;;8.45;4.10;;;15.60;99.90;;;;;;5006034;28;20240;-69
2022/05/14 06:31:23;;;;;;;7.55;4.53;;;15.40;99.90;;;;;;5005415;28;20289;-70
2022/05/14 06:34:13;;;;;;;7.93;4.00;;;15.20;99.90;;;;;;4994367;28;20233;-70
2022/05/14 06:37:02;;;;;;;7.18;4.05;;;15.20;99.90;;;;;;5012923;28;20222;-70
2022/05/14 06:39:51;;;;;;;55.42;37.35;;;15.20;99.90;;;;;;4997805;28;20363;-73
2022/05/14 06:42:43;;;;;;;9.60;3.90;;;15.20;99.90;;;;;;5015881;28;20215;-72
2022/05/14 06:45:33;;;;;;;9.88;3.90;;;15.00;99.90;;;;;;5012498;28;20222;-73
2022/05/14 06:48:22;;;;;;;9.88;3.88;;;15.20;99.90;;;;;;5032073;28;20319;-72
2022/05/14 06:51:21;;;;;;;13.35;9.10;;;15.30;99.90;;;;;;5024769;28;20272;-71
2022/05/14 06:54:11;;;;;;;24.58;14.32;;;15.40;99.90;;;;;;5006138;28;20971;-73
2022/05/14 06:57:02;;;;;;;8.98;3.75;;;15.20;99.90;;;;;;5007216;28;20256;-72
2022/05/14 06:59:51;;;;;;;9.93;4.03;;;15.20;99.90;;;;;;5005122;28;20281;-73
2022/05/14 07:02:41;;;;;;;7.68;3.88;;;15.30;99.90;;;;;;5023177;28;20228;-72
2022/05/14 07:08:37;;;;;;;7.80;4.47;;;15.40;99.90;;;;;;4999752;28;20324;-72
2022/05/14 07:11:26;;;;;;;8.73;5.75;;;15.30;99.90;;;;;;5015150;28;20703;-73
2022/05/14 07:14:17;;;;;;;10.65;3.85;;;15.50;99.90;;;;;;5001051;28;20218;-73
2022/05/14 07:17:06;;;;;;;9.98;4.65;;;15.60;99.90;;;;;;4985007;28;20716;-73
2022/05/14 07:19:55;;;;;;;5.97;4.05;;;16.00;99.90;;;;;;4983703;28;20760;-77
2022/05/14 07:22:45;;;;;;;8.27;3.70;;;16.00;99.90;;;;;;4982409;28;20222;-75
2022/05/14 07:25:34;;;;;;;8.75;4.25;;;16.10;99.90;;;;;;5000510;28;20222;-73
2022/05/14 07:28:24;;;;;;;7.63;4.25;;;16.10;99.90;;;;;;5015794;28;20296;-72
2022/05/14 07:31:16;;;;;;;10.43;4.43;;;16.10;99.90;;;;;;5018792;28;20256;-75
2022/05/14 07:34:05;;;;;;;11.70;4.50;;;16.10;99.90;;;;;;5004763;28;20221;-73
2022/05/14 07:36:58;;;;;;;9.43;3.83;;;16.40;99.90;;;;;;5002938;28;20391;-73
2022/05/14 07:39:52;;;;;;;9.60;4.10;;;16.20;99.90;;;;;;5003642;28;20230;-73
2022/05/14 07:42:46;;;;;;;9.02;4.43;;;16.50;99.90;;;;;;5021561;28;20222;-73
2022/05/14 07:45:39;;;;;;;6.72;3.80;;;16.80;99.90;;;;;;5019678;28;20229;-74
2022/05/14 07:48:32;;;;;;;10.68;4.57;;;17.10;99.90;;;;;;4985523;28;20937;-72
2022/05/14 07:51:21;;;;;;;10.35;4.20;;;17.50;99.90;;;;;;4989741;28;20253;-74
2022/05/14 07:54:11;;;;;;;10.25;3.47;;;17.50;99.90;;;;;;5016825;28;20237;-74
2022/05/14 07:57:00;;;;;;;9.43;3.60;;;17.90;99.90;;;;;;5003211;28;20310;-72
2022/05/14 07:59:51;;;;;;;9.98;3.50;;;18.40;99.90;;;;;;5015945;28;20222;-73
2022/05/14 08:02:43;;;;;;;10.68;4.05;;;19.60;99.90;;;;;;5016063;28;20371;-73
2022/05/14 08:05:32;;;;;;;10.77;3.90;;;20.60;99.90;;;;;;5004031;28;20221;-76
2022/05/14 08:08:22;;;;;;;11.57;4.07;;;21.40;99.90;;;;;;5003666;28;20589;-81
2022/05/14 08:11:12;;;;;;;7.32;4.20;;;19.60;99.90;;;;;;4994046;28;20203;-77
2022/05/14 08:14:01;;;;;;;7.60;4.22;;;20.20;99.90;;;;;;5013475;28;20244;-76
2022/05/14 08:16:52;;;;;;;9.00;4.10;;;19.40;99.90;;;;;;5032306;28;20221;-75
2022/05/14 08:19:41;;;;;;;9.45;4.40;;;18.70;99.90;;;;;;5007621;28;20233;-73
2022/05/14 08:25:36;;;;;;;10.30;4.50;;;17.70;99.90;;;;;;5001871;28;20368;-76
2022/05/14 08:28:25;;;;;;;13.05;4.68;;;17.50;99.90;;;;;;4995883;28;20268;-75
2022/05/14 08:31:15;;;;;;;10.40;4.25;;;17.60;99.90;;;;;;4999785;28;20300;-76
2022/05/14 08:34:05;;;;;;;10.98;4.55;;;17.30;99.90;;;;;;5001815;28;20226;-74
2022/05/14 08:36:55;;;;;;;9.23;4.90;;;17.60;99.90;;;;;;5003929;28;20418;-75
2022/05/14 08:39:43;;;;;;;9.55;4.50;;;17.30;99.90;;;;;;4997639;28;20230;-76
2022/05/14 08:42:34;;;;;;;8.77;4.45;;;17.10;99.90;;;;;;4984635;28;20230;-74
2022/05/14 08:45:25;;;;;;;10.98;4.68;;;17.00;99.90;;;;;;4990860;28;20711;-74
2022/05/14 08:48:17;;;;;;;6.80;4.10;;;16.70;99.90;;;;;;5002584;28;20234;-73
2022/05/14 08:51:11;;;;;;;7.78;4.15;;;16.40;99.90;;;;;;4998711;28;20724;-69
2022/05/14 08:54:02;;;;;;;10.98;4.47;;;16.40;99.90;;;;;;4981172;28;20317;-72
2022/05/14 08:57:01;;;;;;;9.00;4.57;;;16.50;99.90;;;;;;5021063;28;20218;-70
2022/05/14 08:59:54;;;;;;;10.57;4.60;;;16.50;99.90;;;;;;4996197;28;20230;-68
2022/05/14 09:02:46;;;;;;;14.82;5.97;;;16.70;99.90;;;;;;4989351;28;20234;-71
2022/05/14 09:05:37;;;;;;;16.70;4.68;;;17.00;99.90;;;;;;5001126;28;20226;-70
2022/05/14 09:08:27;;;;;;;14.45;4.38;;;17.30;99.90;;;;;;5019862;28;20240;-71
2022/05/14 09:11:22;;;;;;;7.32;4.68;;;17.40;99.90;;;;;;5030056;28;20222;-71
2022/05/14 09:14:21;;;;;;;8.98;4.35;;;17.40;99.90;;;;;;5018902;28;20229;-72
2022/05/14 09:17:15;;;;;;;8.73;4.30;;;17.60;99.90;;;;;;5020079;28;20873;-69
2022/05/14 09:20:05;;;;;;;10.25;6.63;;;17.50;99.90;;;;;;5009879;28;20741;-71
2022/05/14 09:22:56;;;;;;;12.05;3.92;;;17.30;99.90;;;;;;5021468;28;20240;-71
2022/05/14 09:25:47;;;;;;;10.35;4.20;;;17.40;99.90;;;;;;5008933;28;20241;-71
2022/05/14 09:28:41;;;;;;;8.40;3.90;;;17.50;99.90;;;;;;5001917;28;20238;-71
2022/05/14 09:31:33;;;;;;;10.70;3.97;;;20.20;99.90;;;;;;5002197;28;20889;-71
2022/05/14 09:34:24;;;;;;;11.13;3.97;;;23.70;96.60;;;;;;4988746;28;20309;-70
2022/05/14 09:37:22;;;;;;;7.60;3.67;;;24.80;84.10;;;;;;4991959;28;20304;-70
2022/05/14 09:40:15;;;;;;;14.07;3.83;;;23.50;81.50;;;;;;4998621;28;20230;-71
2022/05/14 09:43:21;;;;;;;10.93;3.72;;;21.00;85.90;;;;;;5004308;28;20242;-70
2022/05/14 09:46:15;;;;;;;10.23;3.25;;;21.20;88.00;;;;;;5003230;28;20237;-71
2022/05/14 09:49:10;;;;;;;6.50;3.08;;;20.60;85.60;;;;;;4996928;28;20589;-69
2022/05/14 09:52:04;;;;;;;8.55;2.60;;;19.90;87.70;;;;;;5001561;28;20265;-70
2022/05/14 09:54:54;;;;;;;9.60;2.33;;;19.70;86.60;;;;;;5014067;28;20246;-70
2022/05/14 09:57:49;;;;;;;4.75;2.60;;;21.40;81.10;;;;;;5000801;28;20299;-71
2022/05/14 10:00:47;;;;;;;6.57;2.40;;;24.00;71.10;;;;;;4988911;28;20318;-70
2022/05/14 10:03:53;;;;;;;6.88;2.80;;;25.90;65.00;;;;;;5005271;28;20226;-70
2022/05/14 10:06:48;;;;;;;10.52;2.70;;;25.30;62.00;;;;;;5014158;28;20232;-71
2022/05/14 10:09:43;;;;;;;9.07;3.10;;;24.10;62.50;;;;;;4984461;28;20721;-70
2022/05/14 10:12:36;;;;;;;10.07;3.67;;;23.80;64.40;;;;;;4985312;28;20229;-71
2022/05/14 10:15:40;;;;;;;7.55;3.28;;;24.70;63.50;;;;;;5000746;28;20693;-73
2022/05/14 10:18:40;;;;;;;9.27;3.08;;;25.10;60.50;;;;;;4995450;28;20739;-72
2022/05/14 10:21:38;;;;;;;9.50;3.00;;;26.50;59.00;;;;;;5025036;28;21312;-70
2022/05/14 10:28:10;;;;;;;8.88;3.45;;;24.00;61.50;;;;;;5010783;28;20400;-71
2022/05/14 10:31:09;;;;;;;9.98;3.38;;;23.50;66.00;;;;;;5003688;28;20257;-70
2022/05/14 10:34:06;;;;;;;10.38;3.13;;;22.80;66.00;;;;;;5000477;28;20246;-72
2022/05/14 10:36:59;;;;;;;7.03;3.25;;;22.20;67.90;;;;;;5001641;28;20282;-70
2022/05/14 10:39:58;;;;;;;6.88;3.35;;;20.80;69.20;;;;;;4999092;28;20222;-71
2022/05/14 10:42:57;;;;;;;8.07;3.40;;;20.50;71.10;;;;;;5002155;28;20264;-70
2022/05/14 10:45:48;;;;;;;12.75;3.60;;;20.40;72.00;;;;;;4988303;28;20274;-71
2022/05/14 10:48:43;;;;;;;11.57;3.22;;;20.10;72.20;;;;;;5000476;28;20290;-69
2022/05/14 10:51:43;;;;;;;10.65;2.70;;;20.00;72.80;;;;;;5001696;28;20243;-70
2022/05/14 10:54:34;;;;;;;7.47;2.70;;;20.30;72.50;;;;;;5004662;28;20221;-70
2022/05/14 10:57:34;;;;;;;8.65;2.65;;;20.10;73.20;;;;;;5022980;28;20877;-70
2022/05/14 11:00:40;;;;;;;10.48;2.88;;;19.60;72.00;;;;;;5010999;28;20634;-71
2022/05/14 11:03:32;;;;;;;11.93;2.58;;;19.40;71.40;;;;;;5001286;28;20360;-70
2022/05/14 11:06:29;;;;;;;8.50;2.63;;;19.10;71.30;;;;;;4998268;28;20215;-72
2022/05/14 11:09:22;;;;;;;15.65;3.35;;;19.40;71.30;;;;;;5000702;28;20222;-71
2022/05/14 11:12:15;;;;;;;12.30;2.70;;;19.40;71.60;;;;;;5002111;28;20230;-72
2022/05/14 11:15:17;;;;;;;15.73;2.80;;;20.60;69.00;;;;;;5004472;28;20434;-71
2022/05/14 11:18:10;;;;;;;7.65;2.40;;;22.30;65.70;;;;;;4998025;28;20222;-72
2022/05/14 11:21:03;;;;;;;8.10;2.53;;;22.30;64.10;;;;;;4995952;28;20341;-70
2022/05/14 11:23:58;;;;;;;7.25;2.42;;;21.00;65.70;;;;;;4985618;28;20337;-72
2022/05/14 11:26:52;;;;;;;11.40;3.03;;;20.90;66.80;;;;;;4996361;28;20229;-72
2022/05/14 11:29:50;;;;;;;10.63;2.78;;;20.50;68.20;;;;;;5003033;28;20218;-72
2022/05/14 11:32:46;;;;;;;6.57;2.40;;;19.90;68.90;;;;;;5005572;28;20248;-72
2022/05/14 11:35:40;;;;;;;9.85;2.92;;;20.00;68.60;;;;;;5003756;28;20230;-72
2022/05/14 11:38:33;;;;;;;6.70;2.75;;;19.80;70.10;;;;;;5017529;28;20229;-72
2022/05/14 11:41:29;;;;;;;9.20;2.90;;;19.70;70.50;;;;;;5007888;28;20459;-71
2022/05/14 11:44:34;;;;;;;13.90;2.85;;;19.40;71.00;;;;;;5017715;28;20222;-72
2022/05/14 11:47:56;;;;;;;8.57;2.80;;;19.60;71.10;;;;;;5032828;28;20225;-70
2022/05/14 11:50:54;;;;;;;10.77;2.85;;;19.90;71.90;;;;;;5018162;28;20336;-70
2022/05/14 11:53:47;;;;;;;7.50;2.63;;;19.80;70.50;;;;;;4997789;28;20218;-70
2022/05/14 11:56:44;;;;;;;8.95;2.75;;;19.90;70.50;;;;;;4999266;28;20377;-69
2022/05/14 11:59:40;;;;;;;9.23;2.92;;;19.90;70.10;;;;;;4999066;28;20226;-70
2022/05/14 12:02:40;;;;;;;6.65;2.60;;;20.00;70.60;;;;;;4993638;28;20252;-71
2022/05/14 12:05:33;;;;;;;9.95;2.60;;;19.60;70.00;;;;;;5007802;28;20230;-71
2022/05/14 12:08:51;;;;;;;9.85;2.90;;;19.70;70.40;;;;;;5002706;28;20248;-70
2022/05/14 12:11:49;;;;;;;8.32;2.88;;;19.70;70.50;;;;;;5028405;28;20337;-70
2022/05/14 12:14:40;;;;;;;7.30;2.92;;;19.60;71.20;;;;;;4993862;28;20830;-70
2022/05/14 12:17:29;;;;;;;11.68;3.25;;;19.70;71.80;;;;;;4993638;28;20243;-70
2022/05/14 12:20:21;;;;;;;9.60;3.90;;;19.80;71.80;;;;;;5010899;28;20276;-69
2022/05/14 12:23:14;;;;;;;7.70;2.70;;;19.90;71.90;;;;;;5000927;28;20283;-71
2022/05/14 12:26:06;;;;;;;9.80;2.88;;;19.70;72.00;;;;;;5014125;28;21010;-70
2022/05/14 12:28:57;;;;;;;9.30;2.85;;;19.80;70.30;;;;;;5001012;28;20321;-71
2022/05/14 12:35:14;;;;;;;14.98;3.38;;;19.60;71.70;;;;;;4997286;28;20222;-71
2022/05/14 12:38:06;;;;;;;10.40;2.70;;;19.50;71.80;;;;;;5019894;28;20226;-71
2022/05/14 12:40:56;;;;;;;8.93;2.75;;;19.40;72.60;;;;;;5008566;28;20356;-71
2022/05/14 12:43:45;;;;;;;9.20;2.50;;;19.40;71.90;;;;;;5019511;28;20221;-70
2022/05/14 12:46:39;;;;;;;9.23;2.72;;;19.40;71.40;;;;;;5019360;28;20230;-70
2022/05/14 12:49:37;;;;;;;10.75;3.42;;;19.40;71.60;;;;;;5019861;28;20279;-71
2022/05/14 12:52:28;;;;;;;11.75;3.75;;;19.50;71.90;;;;;;5016759;28;20214;-71
2022/05/14 12:55:19;;;;;;;11.95;2.83;;;19.50;70.90;;;;;;5007630;28;20595;-72
2022/05/14 12:58:08;;;;;;;7.68;2.97;;;19.80;71.00;;;;;;5004558;28;20319;-73
2022/05/14 13:00:57;;;;;;;11.13;2.95;;;19.90;70.50;;;;;;5003877;28;20218;-72
2022/05/14 13:03:50;;;;;;;15.50;3.13;;;19.60;70.20;;;;;;4996437;28;20230;-70
2022/05/14 13:06:44;;;;;;;11.23;2.65;;;19.60;70.80;;;;;;4997326;28;20379;-71
2022/05/14 13:09:33;;;;;;;9.40;2.75;;;19.80;70.30;;;;;;5005275;28;20358;-71
2022/05/14 13:12:24;;;;;;;8.32;2.75;;;19.90;70.70;;;;;;4999807;28;20210;-71
2022/05/14 13:15:14;;;;;;;5.40;2.70;;;19.80;70.60;;;;;;5003863;28;20222;-72
2022/05/14 13:18:12;;;;;;;12.50;3.25;;;19.50;70.70;;;;;;5001565;28;20226;-71
2022/05/14 13:21:04;;;;;;;9.70;3.03;;;19.40;72.10;;;;;;5004074;28;20291;-71
2022/05/14 13:23:58;;;;;;;13.80;2.95;;;19.50;71.30;;;;;;5001896;28;20728;-71
2022/05/14 13:26:49;;;;;;;7.70;2.50;;;19.40;71.50;;;;;;5001806;28;20230;-71
2022/05/14 13:29:40;;;;;;;9.93;2.60;;;19.60;71.60;;;;;;5002768;28;20575;-71
2022/05/14 13:32:29;;;;;;;14.82;3.13;;;19.70;71.20;;;;;;5004375;28;22142;-70
2022/05/14 13:38:37;;;;;;;11.10;2.63;;;20.10;71.60;;;;;;5004286;28;20230;-71
2022/05/14 13:41:32;;;;;;;10.00;3.35;;;20.00;70.60;;;;;;5013944;28;20218;-72
2022/05/14 13:44:27;;;;;;;11.70;2.92;;;19.80;71.10;;;;;;4999121;28;20215;-72
2022/05/14 13:47:21;;;;;;;11.25;2.85;;;20.00;71.20;;;;;;5001469;28;20650;-72
2022/05/14 13:50:10;;;;;;;6.30;2.60;;;20.10;70.60;;;;;;5015145;28;20249;-71
2022/05/14 13:53:00;;;;;;;8.50;2.80;;;20.20;70.70;;;;;;5000429;28;20229;-70
2022/05/14 13:56:01;;;;;;;10.65;2.75;;;20.20;70.90;;;;;;4996737;28;20222;-71
2022/05/14 13:59:00;;;;;;;8.88;2.83;;;20.30;70.90;;;;;;5000824;28;20229;-70
2022/05/14 14:01:51;;;;;;;10.30;3.17;;;20.20;70.80;;;;;;5021885;28;20226;-72
2022/05/14 14:04:42;;;;;;;14.82;2.97;;;20.20;69.50;;;;;;5002144;28;20291;-71
2022/05/14 14:07:35;;;;;;;13.15;3.10;;;20.20;69.70;;;;;;5011981;28;20701;-71
2022/05/14 14:10:32;;;;;;;15.35;3.88;;;20.00;70.70;;;;;;5030046;28;20687;-75
2022/05/14 14:13:21;;;;;;;7.50;2.70;;;19.80;70.90;;;;;;5028647;28;20218;-73
2022/05/14 14:16:11;;;;;;;9.18;2.40;;;19.80;70.50;;;;;;5007827;28;20715;-71
2022/05/14 14:19:00;;;;;;;15.10;3.05;;;19.70;70.70;;;;;;5016761;28;20622;-71
2022/05/14 14:21:51;;;;;;;11.18;2.90;;;19.80;71.10;;;;;;5004495;28;20226;-73
2022/05/14 14:24:45;;;;;;;10.48;2.90;;;19.80;70.80;;;;;;5032718;28;20264;-72
2022/05/14 14:27:34;;;;;;;15.25;3.08;;;19.90;70.40;;;;;;4999172;28;20275;-68
2022/05/14 14:30:23;;;;;;;9.23;2.80;;;20.00;70.80;;;;;;5006354;28;20771;-68
2022/05/14 14:33:13;;;;;;;9.18;3.10;;;19.90;70.30;;;;;;4996980;28;20824;-71
2022/05/14 14:36:03;;;;;;;8.13;3.20;;;19.70;71.10;;;;;;4996989;28;20226;-69
2022/05/14 14:38:52;;;;;;;12.15;3.03;;;19.50;71.20;;;;;;5007190;28;20265;-70
2022/05/14 14:41:41;;;;;;;14.40;3.30;;;19.40;71.40;;;;;;5007004;28;20370;-68
2022/05/14 14:44:30;;;;;;;9.68;3.28;;;19.30;71.80;;;;;;5019129;28;20230;-68
2022/05/14 14:47:19;;;;;;;13.80;3.10;;;19.10;72.00;;;;;;4999571;28;20222;-67
2022/05/14 14:50:10;;;;;;;9.00;3.35;;;19.10;72.50;;;;;;4995849;28;20218;-68
2022/05/14 14:53:03;;;;;;;9.30;2.92;;;19.00;72.70;;;;;;5002103;28;20872;-68
2022/05/14 14:55:52;;;;;;;8.40;2.80;;;19.30;72.80;;;;;;5000098;28;20218;-69
2022/05/14 14:58:42;;;;;;;15.10;3.35;;;19.50;72.60;;;;;;5007444;28;20261;-69
2022/05/14 15:01:38;;;;;;;7.68;2.80;;;19.70;71.80;;;;;;4990696;28;20276;-65
2022/05/14 15:04:32;;;;;;;7.03;2.40;;;19.60;72.70;;;;;;5020513;28;20692;-68
2022/05/14 15:07:23;;;;;;;14.13;3.38;;;19.40;72.50;;;;;;5034980;28;20375;-69
2022/05/14 15:10:14;;;;;;;10.35;3.03;;;19.20;72.90;;;;;;5018198;28;20249;-69
2022/05/14 15:13:06;;;;;;;8.15;3.10;;;19.30;72.70;;;;;;5007111;28;20654;-69
2022/05/14 15:15:55;;;;;;;9.95;2.85;;;19.30;73.60;;;;;;5005424;28;20317;-69